createdAt,value
2023-01-10T00:00:37.676Z,95024.47
2023-01-10T00:03:07.928Z,95028.88
2023-01-10T00:05:35.988Z,95025.25
2023-01-10T00:08:03.837Z,95014.38
2023-01-10T00:10:31.632Z,95037.38
2023-01-10T00:13:17.686Z,95043.75
2023-01-10T00:15:45.701Z,95040.34
2023-01-10T00:18:12.851Z,95039.81
2023-01-10T00:20:40.064Z,95051.59
2023-01-10T00:23:07.160Z,95040.81
2023-01-10T00:25:36.289Z,95048.31
2023-01-10T00:28:20.350Z,95049.00
2023-01-10T00:31:04.651Z,95058.00
2023-01-10T00:33:34.764Z,95057.97
2023-01-10T00:36:03.446Z,95054.19
2023-01-10T00:38:31.571Z,95069.34
2023-01-10T00:40:58.656Z,95053.75
2023-01-10T00:43:44.699Z,95065.38
2023-01-10T00:46:11.854Z,95060.47
2023-01-10T00:48:39.299Z,95062.50
2023-01-10T00:51:06.511Z,95072.97
2023-01-10T00:53:33.618Z,95069.47
2023-01-10T00:56:00.564Z,95071.44
2023-01-10T00:58:27.578Z,95080.47
2023-01-10T01:00:54.638Z,95070.53
2023-01-10T01:03:23.510Z,95085.03
2023-01-10T01:05:50.635Z,95087.72
2023-01-10T01:08:18.780Z,95081.59
2023-01-10T01:10:46.580Z,95092.75
2023-01-10T01:13:19.411Z,95104.03
2023-01-10T01:15:47.183Z,95095.13
2023-01-10T01:18:16.883Z,95104.03
2023-01-10T01:20:46.071Z,95094.88
2023-01-10T01:23:13.899Z,95105.34
2023-01-10T01:25:41.317Z,95107.53
2023-01-10T01:28:09.538Z,95109.00
2023-01-10T01:30:36.397Z,95118.69
2023-01-10T01:33:03.625Z,95115.41
2023-01-10T01:35:30.920Z,95121.34
2023-01-10T01:37:57.998Z,95112.22
2023-01-10T01:40:25.236Z,95111.66
2023-01-10T01:42:58.295Z,95126.56
2023-01-10T01:45:32.579Z,95110.16
2023-01-10T01:48:06.713Z,95130.50
2023-01-10T01:50:43.538Z,95116.13
2023-01-10T01:53:35.081Z,95128.38
2023-01-10T01:56:08.877Z,95121.69
2023-01-10T01:58:46.796Z,95127.00
2023-01-10T02:01:16.042Z,95133.03
2023-01-10T02:03:47.987Z,95125.41
2023-01-10T02:06:16.746Z,95127.06
2023-01-10T02:08:51.340Z,95123.31
2023-01-10T02:11:18.336Z,95115.28
2023-01-10T02:13:46.378Z,95118.66
2023-01-10T02:16:14.096Z,95132.53
2023-01-10T02:18:42.755Z,95120.34
2023-01-10T02:21:15.872Z,95109.44
2023-01-10T02:24:07.519Z,95127.16
2023-01-10T02:26:34.562Z,95117.53
2023-01-10T02:29:24.957Z,95119.59
2023-01-10T02:32:45.514Z,95108.34
2023-01-10T02:35:41.396Z,95116.66
2023-01-10T02:38:52.919Z,95131.72
2023-01-10T02:41:22.804Z,95120.22
2023-01-10T02:44:06.228Z,95124.59
2023-01-10T02:46:36.138Z,95135.94
2023-01-10T02:49:03.298Z,95142.00
2023-01-10T02:51:33.736Z,95134.59
2023-01-10T02:54:12.820Z,95138.53
2023-01-10T02:57:19.929Z,95133.22
2023-01-10T02:59:59.284Z,95142.66
2023-01-10T03:02:58.470Z,95134.91
2023-01-10T03:05:40.004Z,95137.84
2023-01-10T03:08:31.412Z,95146.75
2023-01-10T03:11:01.941Z,95139.78
2023-01-10T03:13:43.657Z,95152.84
2023-01-10T03:16:16.099Z,95146.13
2023-01-10T03:18:50.019Z,95147.41
2023-01-10T03:21:21.163Z,95149.34
2023-01-10T03:23:51.163Z,95160.25
2023-01-10T03:26:30.737Z,95162.75
2023-01-10T03:29:04.379Z,95166.41
2023-01-10T03:31:47.757Z,95166.06
2023-01-10T03:34:14.959Z,95161.63
2023-01-10T03:36:50.622Z,95162.84
2023-01-10T03:39:26.619Z,95173.63
2023-01-10T03:42:15.159Z,95178.19
2023-01-10T03:44:58.464Z,95185.31
2023-01-10T03:47:41.155Z,95202.94
2023-01-10T03:50:15.855Z,95188.09
2023-01-10T03:52:43.998Z,95197.00
2023-01-10T03:55:15.182Z,95201.13
2023-01-10T03:57:49.178Z,95206.59
2023-01-10T04:00:17.257Z,95203.38
2023-01-10T04:02:44.691Z,95212.63
2023-01-10T04:05:12.679Z,95223.47
2023-01-10T04:07:40.009Z,95232.50
2023-01-10T04:10:07.812Z,95232.50
2023-01-10T04:12:34.840Z,95228.31
2023-01-10T04:15:03.057Z,95244.00
2023-01-10T04:17:30.185Z,95235.25
2023-01-10T04:19:57.282Z,95243.22
2023-01-10T04:22:24.361Z,95247.03
2023-01-10T04:24:54.769Z,95243.88
2023-01-10T04:27:21.817Z,95244.31
2023-01-10T04:29:48.937Z,95249.09
2023-01-10T04:32:16.062Z,95273.72
2023-01-10T04:34:43.818Z,95267.78
2023-01-10T04:37:10.941Z,95261.88
2023-01-10T04:39:37.968Z,95258.00
2023-01-10T04:42:04.999Z,95274.75
2023-01-10T04:44:32.040Z,95263.09
2023-01-10T04:46:59.117Z,95284.00
2023-01-10T04:49:26.121Z,95289.34
2023-01-10T04:51:53.236Z,95292.03
2023-01-10T04:54:21.620Z,95298.03
2023-01-10T04:56:49.064Z,95305.06
2023-01-10T04:59:16.397Z,95284.19
2023-01-10T05:01:43.660Z,95309.75
2023-01-10T05:04:10.880Z,95313.25
2023-01-10T05:06:40.332Z,95309.31
2023-01-10T05:09:08.595Z,95314.28
2023-01-10T05:11:35.531Z,95310.44
2023-01-10T05:14:02.834Z,95325.44
2023-01-10T05:16:32.160Z,95329.53
2023-01-10T05:19:00.426Z,95337.16
2023-01-10T05:21:27.490Z,95331.34
2023-01-10T05:23:54.450Z,95347.22
2023-01-10T05:26:23.769Z,95351.94
2023-01-10T05:28:50.992Z,95366.41
2023-01-10T05:31:20.080Z,95347.16
2023-01-10T05:33:48.331Z,95359.53
2023-01-10T05:36:15.198Z,95354.03
2023-01-10T05:38:42.250Z,95359.19
2023-01-10T05:41:09.495Z,95356.41
2023-01-10T05:43:36.582Z,95365.00
2023-01-10T05:46:03.724Z,95378.22
2023-01-10T05:48:30.792Z,95362.66
2023-01-10T05:50:58.032Z,95370.16
2023-01-10T05:53:25.028Z,95364.03
2023-01-10T05:55:56.059Z,95382.81
2023-01-10T05:58:23.583Z,95367.53
2023-01-10T06:00:50.719Z,95389.78
2023-01-10T06:03:18.951Z,95380.88
2023-01-10T06:05:48.677Z,95403.41
2023-01-10T06:08:16.301Z,95395.47
2023-01-10T06:10:43.816Z,95416.75
2023-01-10T06:13:12.424Z,95400.59
2023-01-10T06:15:39.759Z,95418.31
2023-01-10T06:18:07.799Z,95420.59
2023-01-10T06:20:35.341Z,95422.22
2023-01-10T06:23:04.922Z,95417.00
2023-01-10T06:25:33.767Z,95451.31
2023-01-10T06:28:01.610Z,95447.66
2023-01-10T06:30:28.651Z,95449.41
2023-01-10T06:33:01.180Z,95460.25
2023-01-10T06:35:28.730Z,95463.91
2023-01-10T06:37:55.741Z,95456.91
2023-01-10T06:40:22.870Z,95462.25
2023-01-10T06:42:50.611Z,95498.59
2023-01-10T06:45:17.751Z,95481.38
2023-01-10T06:47:44.831Z,95494.94
2023-01-10T06:50:13.759Z,95507.50
2023-01-10T06:52:42.112Z,95512.63
2023-01-10T06:55:09.472Z,95522.13
2023-01-10T06:57:38.410Z,95524.19
2023-01-10T07:00:07.529Z,95522.91
2023-01-10T07:02:34.588Z,95536.59
2023-01-10T07:05:01.581Z,95540.72
2023-01-10T07:07:28.840Z,95557.22
2023-01-10T07:09:55.970Z,95534.84
2023-01-10T07:12:22.951Z,95558.06
2023-01-10T07:14:49.856Z,95551.78
2023-01-10T07:17:16.849Z,95574.50
2023-01-10T07:19:43.831Z,95569.63
2023-01-10T07:22:12.039Z,95576.81
2023-01-10T07:24:38.934Z,95586.84
2023-01-10T07:27:05.881Z,95598.72
2023-01-10T07:29:32.804Z,95584.91
2023-01-10T07:31:59.892Z,95595.75
2023-01-10T07:34:26.841Z,95604.00
2023-01-10T07:36:57.775Z,95590.47
2023-01-10T07:39:24.811Z,95627.06
2023-01-10T07:41:52.978Z,95618.25
2023-01-10T07:44:21.568Z,95613.53
2023-01-10T07:46:48.635Z,95629.13
2023-01-10T07:49:15.608Z,95631.28
2023-01-10T07:51:42.479Z,95635.94
2023-01-10T07:54:09.510Z,95640.13
2023-01-10T07:56:36.455Z,95649.59
2023-01-10T07:59:03.471Z,95638.44
2023-01-10T08:01:30.578Z,95658.22
2023-01-10T08:03:58.652Z,95673.63
2023-01-10T08:06:25.723Z,95662.34
2023-01-10T08:08:52.801Z,95683.09
2023-01-10T08:11:19.729Z,95693.81
2023-01-10T08:13:46.770Z,95701.59
2023-01-10T08:16:15.609Z,95707.53
2023-01-10T08:18:43.500Z,95706.69
2023-01-10T08:21:10.559Z,95709.63
2023-01-10T08:23:37.633Z,95713.50
2023-01-10T08:26:05.945Z,95726.13
2023-01-10T08:28:33.362Z,95722.47
2023-01-10T08:31:06.004Z,95745.06
2023-01-10T08:33:33.521Z,95752.31
2023-01-10T08:36:00.521Z,95751.84
2023-01-10T08:38:27.674Z,95761.22
2023-01-10T08:40:59.248Z,95757.91
2023-01-10T08:43:26.527Z,95773.09
2023-01-10T08:45:53.706Z,95769.50
2023-01-10T08:48:20.919Z,95772.38
2023-01-10T08:50:47.892Z,95784.69
2023-01-10T08:53:14.904Z,95783.03
2023-01-10T08:55:41.845Z,95798.09
2023-01-10T08:58:09.993Z,95797.63
2023-01-10T09:00:37.036Z,95805.31
2023-01-10T09:03:06.751Z,95809.34
2023-01-10T09:05:33.765Z,95817.56
2023-01-10T09:08:02.846Z,95813.53
2023-01-10T09:10:30.589Z,95825.00
2023-01-10T09:13:00.063Z,95838.03
2023-01-10T09:15:33.014Z,95822.34
2023-01-10T09:18:02.496Z,95847.56
2023-01-10T09:20:29.891Z,95848.59
2023-01-10T09:22:58.648Z,95852.41
2023-01-10T09:25:25.882Z,95855.09
2023-01-10T09:28:00.430Z,95865.38
2023-01-10T09:30:29.049Z,95862.84
2023-01-10T09:32:57.429Z,95871.16
2023-01-10T09:35:26.100Z,95881.38
2023-01-10T09:37:57.290Z,95884.19
2023-01-10T09:40:40.223Z,95893.16
2023-01-10T09:43:22.697Z,95893.69
2023-01-10T09:46:05.639Z,95904.53
2023-01-10T09:49:03.364Z,95908.13
2023-01-10T09:51:41.232Z,95905.91
2023-01-10T09:54:16.032Z,95903.66
2023-01-10T09:56:44.732Z,95902.31
2023-01-10T09:59:27.773Z,95898.28
2023-01-10T10:02:04.264Z,95915.78
2023-01-10T10:04:36.828Z,95921.81
2023-01-10T10:07:07.593Z,95921.34
2023-01-10T10:09:35.559Z,95922.84
2023-01-10T10:12:19.630Z,95926.28
2023-01-10T10:15:16.082Z,95939.66
2023-01-10T10:18:05.381Z,95920.94
2023-01-10T10:20:43.331Z,95927.13
2023-01-10T10:23:19.427Z,95912.53
2023-01-10T10:26:11.442Z,95941.69
2023-01-10T10:28:56.861Z,95924.09
2023-01-10T10:31:47.805Z,95922.03
2023-01-10T10:34:26.226Z,95933.06
2023-01-10T10:37:01.340Z,95938.91
2023-01-10T10:39:40.913Z,95930.88
2023-01-10T10:42:13.668Z,95939.81
2023-01-10T10:45:02.980Z,95935.66
2023-01-10T10:47:36.265Z,95955.66
2023-01-10T10:50:16.104Z,95942.19
2023-01-10T10:52:45.314Z,95956.44
2023-01-10T10:55:18.310Z,95955.78
2023-01-10T10:57:59.578Z,95963.00
2023-01-10T11:00:29.074Z,95959.38
2023-01-10T11:03:04.731Z,95970.06
2023-01-10T11:05:41.461Z,95952.41
2023-01-10T11:08:13.956Z,95968.63
2023-01-10T11:10:48.984Z,95965.47
2023-01-10T11:13:37.500Z,95980.19
2023-01-10T11:16:06.498Z,95990.19
2023-01-10T11:18:34.185Z,95959.75
2023-01-10T11:21:06.571Z,95990.59
2023-01-10T11:23:39.363Z,95989.72
2023-01-10T11:26:22.561Z,95988.44
2023-01-10T11:28:52.738Z,95999.22
2023-01-10T11:31:30.084Z,95981.28
2023-01-10T11:33:57.930Z,95997.59
2023-01-10T11:36:25.228Z,95998.56
2023-01-10T11:39:01.852Z,95987.19
2023-01-10T11:41:34.463Z,96007.78
2023-01-10T11:44:25.131Z,96001.44
2023-01-10T11:47:03.883Z,96007.59
2023-01-10T11:49:37.137Z,96008.06
2023-01-10T11:52:27.170Z,96004.91
2023-01-10T11:54:58.446Z,96002.06
2023-01-10T11:57:28.987Z,96015.88
2023-01-10T12:00:10.813Z,96010.72
2023-01-10T12:13:22.981Z,96024.50
2023-01-10T12:15:49.997Z,96019.84
2023-01-10T12:18:20.201Z,96023.72
2023-01-10T12:20:53.303Z,96022.84
2023-01-10T12:23:24.131Z,96045.31
2023-01-10T12:26:00.229Z,96042.69
2023-01-10T12:28:36.601Z,96047.03
2023-01-10T12:31:07.102Z,96046.09
2023-01-10T12:33:46.749Z,96043.88
2023-01-10T12:36:28.585Z,96047.34
2023-01-10T12:39:08.946Z,96042.03
2023-01-10T12:42:01.898Z,96053.19
2023-01-10T12:44:39.214Z,96055.06
2023-01-10T12:47:19.410Z,96049.44
2023-01-10T12:50:17.923Z,96054.34
2023-01-10T12:53:01.137Z,96051.03
2023-01-10T12:55:34.839Z,96050.00
2023-01-10T12:58:05.474Z,96045.63
2023-01-10T13:00:48.691Z,96033.47
2023-01-10T13:03:21.115Z,96036.34
2023-01-10T13:05:50.141Z,96033.16
2023-01-10T13:08:21.529Z,96044.09
2023-01-10T13:10:52.785Z,96038.28
2023-01-10T13:13:42.332Z,96052.44
2023-01-10T13:16:34.272Z,96062.91
2023-01-10T13:19:06.000Z,96052.84
2023-01-10T13:21:34.968Z,96058.16
2023-01-10T13:24:31.388Z,96067.72
2023-01-10T13:27:02.253Z,96069.19
2023-01-10T13:29:49.301Z,96071.28
2023-01-10T13:32:23.870Z,96090.44
2023-01-10T13:34:51.783Z,96079.25
2023-01-10T13:37:30.725Z,96073.66
2023-01-10T13:40:00.037Z,96065.88
2023-01-10T13:42:49.507Z,96090.66
2023-01-10T13:45:43.378Z,96073.03
2023-01-10T13:48:36.638Z,96077.69
2023-01-10T13:51:15.947Z,96078.38
2023-01-10T13:53:55.094Z,96089.78
2023-01-10T13:56:39.650Z,96096.59
2023-01-10T13:59:43.955Z,96105.47
2023-01-10T14:02:29.675Z,96107.28
2023-01-10T14:05:03.297Z,96102.50
2023-01-10T14:07:46.082Z,96098.81
2023-01-10T14:10:28.457Z,96106.69
2023-01-10T14:13:09.933Z,96104.94
2023-01-10T14:15:44.014Z,96120.28
2023-01-10T14:18:24.304Z,96111.44
2023-01-10T14:20:59.101Z,96128.59
2023-01-10T14:23:34.702Z,96128.69
2023-01-10T14:26:02.648Z,96127.34
2023-01-10T14:28:33.361Z,96135.81
2023-01-10T14:31:22.323Z,96151.22
2023-01-10T14:33:50.041Z,96150.41
2023-01-10T14:36:27.768Z,96155.34
2023-01-10T14:38:59.433Z,96159.41
2023-01-10T14:41:38.878Z,96162.31
2023-01-10T14:44:17.139Z,96165.22
2023-01-10T14:46:53.383Z,96178.94
2023-01-10T14:49:48.510Z,96167.50
2023-01-10T14:52:24.265Z,96189.75
2023-01-10T14:55:10.528Z,96179.63
2023-01-10T14:57:37.757Z,96191.56
2023-01-10T15:00:18.043Z,96194.97
2023-01-10T15:02:47.590Z,96187.00
2023-01-10T15:05:23.703Z,96201.78
2023-01-10T15:07:50.732Z,96198.47
2023-01-10T15:10:39.872Z,96221.28
2023-01-10T15:13:07.592Z,96191.75
2023-01-10T15:15:37.711Z,96203.66
2023-01-10T15:18:24.572Z,96207.38
2023-01-10T15:20:52.539Z,96214.47
2023-01-10T15:23:20.546Z,96227.50
2023-01-10T15:25:56.582Z,96247.47
2023-01-10T15:28:23.871Z,96257.03
2023-01-10T15:30:51.137Z,96254.44
2023-01-10T15:33:27.232Z,96262.00
2023-01-10T15:35:54.368Z,96260.34
2023-01-10T15:38:26.661Z,96275.59
2023-01-10T15:41:02.813Z,96276.38
2023-01-10T15:43:31.733Z,96271.06
2023-01-10T15:46:00.454Z,96291.53
2023-01-10T15:48:35.080Z,96295.47
2023-01-10T15:51:28.810Z,96295.84
2023-01-10T15:54:06.123Z,96291.13
2023-01-10T15:56:38.651Z,96294.09
2023-01-10T15:59:21.229Z,96302.81
2023-01-10T16:02:18.303Z,96298.75
2023-01-10T16:04:46.866Z,96306.88
2023-01-10T16:07:31.198Z,96312.59
2023-01-10T16:10:09.242Z,96310.22
2023-01-10T16:12:55.890Z,96315.56
2023-01-10T16:15:32.516Z,96315.94
2023-01-10T16:18:00.111Z,96326.56
2023-01-10T16:20:31.120Z,96324.34
2023-01-10T16:23:00.121Z,96335.91
2023-01-10T16:25:32.728Z,96334.31
2023-01-10T16:28:00.660Z,96337.72
2023-01-10T16:30:32.730Z,96349.28
2023-01-10T16:33:03.084Z,96321.34
2023-01-10T16:35:30.071Z,96342.59
2023-01-10T16:37:58.238Z,96320.31
2023-01-10T16:40:35.619Z,96334.78
2023-01-10T16:43:18.274Z,96322.03
2023-01-10T16:45:47.957Z,96351.63
2023-01-10T16:48:16.191Z,96344.84
2023-01-10T16:50:43.329Z,96348.81
2023-01-10T16:53:15.307Z,96339.91
2023-01-10T16:55:45.569Z,96346.81
2023-01-10T16:58:14.491Z,96330.66
2023-01-10T17:00:44.045Z,96347.97
2023-01-10T17:03:40.032Z,96358.13
2023-01-10T17:06:07.309Z,96361.41
2023-01-10T17:08:34.396Z,96368.16
2023-01-10T17:11:06.394Z,96368.38
2023-01-10T17:13:36.849Z,96379.34
2023-01-10T17:16:03.872Z,96391.91
2023-01-10T17:18:31.196Z,96393.72
2023-01-10T17:21:01.558Z,96389.28
2023-01-10T17:23:29.740Z,96391.72
2023-01-10T17:26:05.121Z,96401.56
2023-01-10T17:28:32.497Z,96403.75
2023-01-10T17:31:00.620Z,96403.72
2023-01-10T17:33:27.723Z,96408.34
2023-01-10T17:35:56.065Z,96406.00
2023-01-10T17:38:25.665Z,96420.22
2023-01-10T17:40:53.853Z,96415.69
2023-01-10T17:43:21.817Z,96421.78
2023-01-10T17:45:52.224Z,96418.28
2023-01-10T17:48:19.853Z,96433.72
2023-01-10T17:50:48.709Z,96414.72
2023-01-10T17:53:17.880Z,96433.53
2023-01-10T17:55:49.114Z,96412.84
2023-01-10T17:58:18.437Z,96424.53
2023-01-10T18:00:49.113Z,96422.16
2023-01-10T18:03:16.970Z,96441.34
2023-01-10T18:05:55.167Z,96438.66
2023-01-10T18:08:22.315Z,96435.66
2023-01-10T18:10:50.177Z,96444.66
2023-01-10T18:13:18.714Z,96440.69
2023-01-10T18:15:48.477Z,96437.31
2023-01-10T18:18:16.905Z,96442.41
2023-01-10T18:20:44.907Z,96429.22
2023-01-10T18:23:22.586Z,96444.22
2023-01-10T18:25:52.337Z,96444.19
2023-01-10T18:28:23.502Z,96453.13
2023-01-10T18:30:56.452Z,96454.97
2023-01-10T18:33:24.056Z,96452.94
2023-01-10T18:35:51.370Z,96458.16
2023-01-10T18:38:18.451Z,96463.63
2023-01-10T18:40:47.407Z,96460.78
2023-01-10T18:43:14.499Z,96467.81
2023-01-10T18:45:44.581Z,96473.56
2023-01-10T18:48:14.263Z,96471.38
2023-01-10T18:50:41.251Z,96474.41
2023-01-10T18:53:08.349Z,96478.41
2023-01-10T18:55:35.680Z,96486.03
2023-01-10T18:58:02.782Z,96481.81
2023-01-10T19:00:29.775Z,96501.81
2023-01-10T19:02:59.652Z,96488.22
2023-01-10T19:05:27.532Z,96485.81
2023-01-10T19:07:54.531Z,96490.22
2023-01-10T19:10:21.603Z,96496.41
2023-01-10T19:12:48.643Z,96496.41
2023-01-10T19:15:15.701Z,96496.63
2023-01-10T19:17:42.663Z,96496.84
2023-01-10T19:20:10.429Z,96488.66
2023-01-10T19:22:37.487Z,96490.66
2023-01-10T19:25:05.033Z,96491.84
2023-01-10T19:27:32.108Z,96501.25
2023-01-10T19:29:59.170Z,96502.66
2023-01-10T19:32:26.243Z,96509.47
2023-01-10T19:34:53.305Z,96513.66
2023-01-10T19:37:20.753Z,96502.88
2023-01-10T19:39:47.806Z,96509.28
2023-01-10T19:42:14.822Z,96518.25
2023-01-10T19:44:43.408Z,96501.69
2023-01-10T19:47:11.845Z,96507.69
2023-01-10T19:49:39.036Z,96517.06
2023-01-10T19:52:06.347Z,96508.47
2023-01-10T19:54:33.931Z,96512.69
2023-01-10T19:57:01.362Z,96506.06
2023-01-10T19:59:28.889Z,96516.09
2023-01-10T20:01:57.331Z,96512.28
2023-01-10T20:04:24.411Z,96512.06
2023-01-10T20:06:51.575Z,96519.47
2023-01-10T20:09:19.385Z,96519.25
2023-01-10T20:11:47.041Z,96521.28
2023-01-10T20:14:17.621Z,96514.47
2023-01-10T20:16:45.223Z,96512.69
2023-01-10T20:19:12.921Z,96528.84
2023-01-10T20:21:41.366Z,96524.25
2023-01-10T20:24:20.463Z,96530.06
2023-01-10T20:26:50.135Z,96536.88
2023-01-10T20:29:19.280Z,96537.44
2023-01-10T20:31:49.821Z,96538.06
2023-01-10T20:34:16.835Z,96537.25
2023-01-10T20:36:43.782Z,96548.44
2023-01-10T20:39:10.857Z,96554.81
2023-01-10T20:41:37.902Z,96553.00
2023-01-10T20:44:04.966Z,96558.72
2023-01-10T20:46:33.126Z,96548.91
2023-01-10T20:49:02.620Z,96553.84
2023-01-10T20:51:33.582Z,96554.00
2023-01-10T20:54:00.796Z,96561.06
2023-01-10T20:56:29.996Z,96554.25
2023-01-10T20:58:58.062Z,96552.44
2023-01-10T21:01:34.683Z,96557.97
2023-01-10T21:04:04.430Z,96549.72
2023-01-10T21:06:31.835Z,96561.28
2023-01-10T21:08:59.142Z,96549.69
2023-01-10T21:11:26.282Z,96556.22
2023-01-10T21:13:53.357Z,96561.38
2023-01-10T21:16:22.580Z,96564.72
2023-01-10T21:18:50.814Z,96562.06
2023-01-10T21:21:20.550Z,96556.09
2023-01-10T21:23:47.606Z,96555.47
2023-01-10T21:26:16.085Z,96558.63
2023-01-10T21:28:48.451Z,96561.63
2023-01-10T21:31:20.738Z,96558.34
2023-01-10T21:33:49.510Z,96562.28
2023-01-10T21:36:17.777Z,96567.59
2023-01-10T21:38:45.590Z,96563.78
2023-01-10T21:41:35.431Z,96576.75
2023-01-10T21:44:04.105Z,96576.91
2023-01-10T21:46:31.462Z,96577.91
2023-01-10T21:48:58.552Z,96569.91
2023-01-10T21:51:25.569Z,96564.66
2023-01-10T21:53:52.594Z,96568.59
2023-01-10T21:56:19.705Z,96568.16
2023-01-10T21:58:48.239Z,96568.72
2023-01-10T22:01:15.785Z,96567.06
2023-01-10T22:03:45.384Z,96579.38
2023-01-10T22:06:12.478Z,96575.81
2023-01-10T22:08:39.462Z,96570.00
2023-01-10T22:11:06.944Z,96577.94
2023-01-10T22:13:34.265Z,96573.31
2023-01-10T22:16:02.247Z,96573.84
2023-01-10T22:18:31.592Z,96577.81
2023-01-10T22:20:59.406Z,96586.94
2023-01-10T22:23:28.993Z,96588.88
2023-01-10T22:26:02.924Z,96585.84
2023-01-10T22:28:30.272Z,96584.63
2023-01-10T22:30:57.359Z,96589.16
2023-01-10T22:33:24.839Z,96589.53
2023-01-10T22:35:51.776Z,96591.59
2023-01-10T22:38:18.945Z,96594.19
2023-01-10T22:40:46.052Z,96594.53
2023-01-10T22:43:13.080Z,96599.69
2023-01-10T22:45:43.416Z,96587.31
2023-01-10T22:48:10.713Z,96583.69
2023-01-10T22:50:37.884Z,96593.13
2023-01-10T22:53:04.860Z,96578.34
2023-01-10T22:55:34.307Z,96580.63
2023-01-10T22:58:01.262Z,96578.22
2023-01-10T23:00:29.136Z,96579.41
2023-01-10T23:02:56.182Z,96584.09
2023-01-10T23:05:23.163Z,96581.69
2023-01-10T23:07:53.973Z,96577.69
2023-01-10T23:10:30.196Z,96577.25
2023-01-10T23:12:58.114Z,96578.31
2023-01-10T23:15:25.584Z,96579.00
2023-01-10T23:17:52.591Z,96578.56
2023-01-10T23:20:19.703Z,96582.69
2023-01-10T23:22:46.798Z,96584.00
2023-01-10T23:25:13.741Z,96594.78
2023-01-10T23:27:40.762Z,96597.81
2023-01-10T23:30:09.755Z,96596.19
2023-01-10T23:32:36.983Z,96594.25
2023-01-10T23:35:04.391Z,96588.91
2023-01-10T23:37:31.371Z,96593.72
2023-01-10T23:39:58.285Z,96593.91
2023-01-10T23:42:25.401Z,96598.28
2023-01-10T23:44:52.443Z,96599.50
2023-01-10T23:47:19.383Z,96590.16
2023-01-10T23:49:46.456Z,96601.75
2023-01-10T23:52:15.101Z,96590.78
2023-01-10T23:54:42.069Z,96586.75
2023-01-10T23:57:09.107Z,96593.53
2023-01-10T23:59:36.092Z,96584.66
